Time;durP1;ratioP1;P1;durP2;ratioP2;P2;SDS_P1;SDS_P2;PMS_P1;PMS_P2;Temp;Humidity;BMP_temperature;BMP_pressure;BME280_temperature;BME280_humidity;BME280_pressure;Samples;Min_cycle;Max_cycle;Signal;HPM_P1;HPM_P2
2021/06/22 00:01:53;;;;;;;18.07;6.40;;;13.30;89.80;;;;;;5011323;28;20261;-84
2021/06/22 00:04:19;;;;;;;22.50;6.10;;;13.40;89.70;;;;;;4993635;28;20681;-85
2021/06/22 00:06:44;;;;;;;19.37;6.20;;;13.40;89.60;;;;;;5011513;28;20173;-84
2021/06/22 00:09:10;;;;;;;18.50;6.07;;;13.40;89.60;;;;;;4993839;28;20177;-85
2021/06/22 00:11:36;;;;;;;21.00;6.17;;;13.40;89.50;;;;;;4993782;28;20663;-85
2021/06/22 00:14:02;;;;;;;16.93;6.03;;;13.50;89.40;;;;;;4993653;28;20222;-84
2021/06/22 00:16:28;;;;;;;17.00;5.30;;;13.40;89.20;;;;;;5011315;28;20181;-84
2021/06/22 00:18:53;;;;;;;15.07;5.23;;;13.30;89.20;;;;;;5011256;28;20166;-85
2021/06/22 00:21:19;;;;;;;17.13;5.50;;;13.30;89.20;;;;;;5011133;28;20227;-84
2021/06/22 00:23:45;;;;;;;21.00;5.43;;;13.30;89.10;;;;;;5011154;28;20606;-84
2021/06/22 00:26:11;;;;;;;22.10;5.67;;;13.30;89.00;;;;;;5011172;28;20169;-85
2021/06/22 00:28:36;;;;;;;14.73;6.10;;;13.20;89.00;;;;;;4993544;28;20184;-85
2021/06/22 00:31:02;;;;;;;21.17;5.43;;;13.20;89.10;;;;;;4993487;28;20194;-85
2021/06/22 00:33:27;;;;;;;20.43;4.77;;;13.20;89.30;;;;;;4993414;28;20260;-85
2021/06/22 00:35:53;;;;;;;18.17;5.57;;;13.20;89.30;;;;;;5011030;28;20177;-84
2021/06/22 00:38:19;;;;;;;18.93;5.40;;;13.20;89.30;;;;;;4993400;28;20173;-84
2021/06/22 00:40:44;;;;;;;19.93;6.20;;;13.20;89.30;;;;;;4993385;28;20188;-84
2021/06/22 00:43:10;;;;;;;19.17;5.17;;;13.20;89.40;;;;;;4993350;28;20217;-84
2021/06/22 00:45:35;;;;;;;16.17;5.47;;;13.30;89.20;;;;;;5010755;28;20278;-84
2021/06/22 00:48:02;;;;;;;19.70;5.50;;;13.20;89.20;;;;;;4993249;28;20177;-84
2021/06/22 00:50:28;;;;;;;16.37;5.33;;;13.30;89.20;;;;;;5010764;28;20200;-84
2021/06/22 00:52:54;;;;;;;14.63;4.60;;;13.30;89.10;;;;;;4993204;28;20256;-84
2021/06/22 00:55:30;;;;;;;15.87;5.60;;;13.30;89.00;;;;;;5010629;28;20194;-84
2021/06/22 00:58:06;;;;;;;15.53;5.10;;;13.30;89.00;;;;;;5010337;28;20203;-84
2021/06/22 01:00:34;;;;;;;18.73;5.07;;;13.30;88.90;;;;;;5010653;28;20214;-84
2021/06/22 01:03:01;;;;;;;20.10;6.13;;;13.30;89.00;;;;;;5010511;28;20528;-84
2021/06/22 01:05:27;;;;;;;12.63;5.07;;;13.30;88.80;;;;;;5010467;28;20254;-84
2021/06/22 01:07:55;;;;;;;15.70;5.20;;;13.30;88.80;;;;;;5010610;28;20174;-84
2021/06/22 01:10:22;;;;;;;17.80;5.10;;;13.40;88.80;;;;;;4992890;28;20240;-84
2021/06/22 01:12:48;;;;;;;16.20;5.13;;;13.40;88.70;;;;;;5010815;28;20178;-84
2021/06/22 01:15:18;;;;;;;17.27;4.57;;;13.30;88.60;;;;;;5010398;28;20730;-84
2021/06/22 01:17:44;;;;;;;13.33;5.07;;;13.40;88.50;;;;;;5010528;28;20191;-84
2021/06/22 01:20:11;;;;;;;17.47;5.20;;;13.30;88.40;;;;;;4993252;28;20184;-84
2021/06/22 01:22:42;;;;;;;13.13;4.60;;;13.30;88.50;;;;;;5010741;28;20174;-84
2021/06/22 01:25:08;;;;;;;9.77;5.07;;;13.30;88.50;;;;;;4993027;28;20204;-84
2021/06/22 01:27:34;;;;;;;10.77;4.50;;;13.30;88.50;;;;;;4992828;28;20177;-84
2021/06/22 01:30:00;;;;;;;27.17;5.53;;;13.40;87.90;;;;;;5010286;28;20680;-84
2021/06/22 01:32:26;;;;;;;15.93;4.47;;;13.40;87.70;;;;;;5010278;28;20178;-84
2021/06/22 01:34:51;;;;;;;23.63;5.17;;;13.40;87.70;;;;;;5010265;28;20197;-84
2021/06/22 01:37:17;;;;;;;11.00;4.10;;;13.40;87.50;;;;;;4992720;28;20178;-84
2021/06/22 01:39:43;;;;;;;11.87;4.60;;;13.30;87.70;;;;;;4992726;28;20680;-84
2021/06/22 01:42:09;;;;;;;17.67;4.30;;;13.30;87.40;;;;;;4992624;28;20185;-84
2021/06/22 01:44:35;;;;;;;14.83;4.50;;;13.40;87.50;;;;;;5010072;28;20634;-85
2021/06/22 01:47:01;;;;;;;20.20;4.53;;;13.30;87.70;;;;;;5010127;28;20177;-84
2021/06/22 01:49:27;;;;;;;17.00;4.77;;;13.40;87.80;;;;;;5009948;28;20189;-84
2021/06/22 01:51:53;;;;;;;20.93;4.63;;;13.30;87.70;;;;;;5010076;28;20223;-84
2021/06/22 01:54:18;;;;;;;21.03;4.73;;;13.30;87.80;;;;;;4992472;28;20235;-84
2021/06/22 01:56:51;;;;;;;11.43;4.07;;;13.30;87.80;;;;;;5010142;28;20688;-84
2021/06/22 01:59:17;;;;;;;12.63;5.43;;;13.30;87.90;;;;;;4993089;28;20170;-84
2021/06/22 02:01:43;;;;;;;14.37;5.07;;;13.30;88.00;;;;;;4992378;28;20180;-84
2021/06/22 02:04:10;;;;;;;10.90;5.20;;;13.30;88.00;;;;;;5010046;28;20555;-85
2021/06/22 02:06:36;;;;;;;11.83;4.57;;;13.30;88.00;;;;;;4993055;28;20234;-85
2021/06/22 02:09:02;;;;;;;14.37;4.20;;;13.30;88.20;;;;;;5010889;28;20177;-85
2021/06/22 02:11:28;;;;;;;12.17;4.37;;;13.30;88.10;;;;;;5013160;28;20200;-84
2021/06/22 02:13:54;;;;;;;17.80;4.73;;;13.30;88.20;;;;;;4995653;28;20721;-84
2021/06/22 02:16:21;;;;;;;21.00;5.20;;;13.30;88.20;;;;;;5013111;28;20563;-84
2021/06/22 02:18:46;;;;;;;16.50;4.43;;;13.30;88.20;;;;;;5013041;28;20181;-85
2021/06/22 02:21:12;;;;;;;11.50;4.50;;;13.30;88.10;;;;;;4995495;28;20181;-85
2021/06/22 02:23:39;;;;;;;15.43;4.30;;;13.30;88.00;;;;;;5012924;28;20173;-85
2021/06/22 02:26:05;;;;;;;17.10;4.30;;;13.30;88.00;;;;;;5012960;28;20544;-85
2021/06/22 02:28:31;;;;;;;18.00;4.00;;;13.30;87.90;;;;;;5013275;28;20588;-85
2021/06/22 02:30:57;;;;;;;13.73;4.37;;;13.30;88.00;;;;;;5012874;28;20201;-85
2021/06/22 02:33:24;;;;;;;19.00;5.23;;;13.30;88.10;;;;;;4995291;28;20204;-85
2021/06/22 02:35:50;;;;;;;17.33;4.60;;;13.30;88.40;;;;;;5012842;28;20178;-85
2021/06/22 02:38:16;;;;;;;16.07;4.60;;;13.30;88.40;;;;;;4995273;28;20234;-85
2021/06/22 02:40:42;;;;;;;19.97;5.17;;;13.30;88.30;;;;;;4995476;28;20185;-85
2021/06/22 02:43:08;;;;;;;16.27;5.50;;;13.30;88.40;;;;;;5012633;28;20185;-84
2021/06/22 02:45:35;;;;;;;12.60;4.83;;;13.30;88.40;;;;;;5012674;28;20258;-84
2021/06/22 02:48:02;;;;;;;17.97;5.10;;;13.30;88.50;;;;;;4995144;28;20192;-84
2021/06/22 02:50:28;;;;;;;18.23;4.00;;;13.30;88.50;;;;;;5012644;28;20239;-85
2021/06/22 02:52:54;;;;;;;13.00;4.07;;;13.30;88.50;;;;;;4995066;28;20181;-85
2021/06/22 02:55:20;;;;;;;11.60;4.20;;;13.30;88.50;;;;;;4994959;28;20247;-85
2021/06/22 02:57:54;;;;;;;12.87;4.17;;;13.30;88.40;;;;;;5012531;28;20593;-85
2021/06/22 03:00:25;;;;;;;21.47;4.83;;;13.40;88.20;;;;;;5012434;28;20177;-84
2021/06/22 03:02:52;;;;;;;11.60;4.80;;;13.40;88.10;;;;;;4994934;28;20173;-84
2021/06/22 03:05:18;;;;;;;12.33;4.23;;;13.40;88.20;;;;;;5016034;23;20328;-83
2021/06/22 03:07:44;;;;;;;15.40;4.40;;;13.40;88.10;;;;;;4994932;28;20177;-83
2021/06/22 03:10:12;;;;;;;9.90;4.37;;;13.40;88.10;;;;;;5012158;28;20198;-83
2021/06/22 03:12:38;;;;;;;18.67;4.17;;;13.40;87.90;;;;;;5012259;28;20176;-83
2021/06/22 03:15:06;;;;;;;16.37;4.10;;;13.40;87.60;;;;;;5012145;28;20189;-83
2021/06/22 03:17:32;;;;;;;19.60;4.83;;;13.40;87.60;;;;;;4994671;28;20178;-83
2021/06/22 03:19:58;;;;;;;16.43;4.33;;;13.30;87.60;;;;;;5011753;28;20675;-83
2021/06/22 03:22:23;;;;;;;15.13;4.00;;;13.30;87.60;;;;;;4994506;28;20679;-83
2021/06/22 03:24:49;;;;;;;18.57;4.30;;;13.30;87.70;;;;;;5011951;28;20570;-82
2021/06/22 03:27:14;;;;;;;11.83;4.30;;;13.30;87.70;;;;;;5011953;28;20662;-83
2021/06/22 03:29:40;;;;;;;17.23;4.17;;;13.30;87.50;;;;;;4994320;28;20208;-83
2021/06/22 03:32:06;;;;;;;11.30;4.30;;;13.20;87.50;;;;;;5012222;28;20180;-83
2021/06/22 03:34:32;;;;;;;10.97;3.93;;;13.20;87.50;;;;;;5011890;28;20264;-83
2021/06/22 03:36:57;;;;;;;10.63;4.77;;;13.10;87.30;;;;;;5011852;28;20269;-83
2021/06/22 03:39:23;;;;;;;15.47;4.57;;;13.00;87.30;;;;;;4994277;28;20227;-83
2021/06/22 03:41:49;;;;;;;22.43;4.30;;;13.10;87.40;;;;;;5011783;28;20656;-83
2021/06/22 03:44:14;;;;;;;12.10;3.83;;;13.10;87.40;;;;;;4994164;28;20215;-83
2021/06/22 03:46:43;;;;;;;18.37;4.77;;;13.10;87.30;;;;;;5011740;28;20178;-83
2021/06/22 03:49:09;;;;;;;17.10;4.27;;;13.00;87.20;;;;;;4994138;28;20177;-83
2021/06/22 03:51:35;;;;;;;16.90;4.70;;;13.00;87.00;;;;;;5011575;28;20247;-83
2021/06/22 03:54:01;;;;;;;18.63;5.20;;;12.90;87.10;;;;;;5011919;28;20213;-83
2021/06/22 03:56:28;;;;;;;12.23;3.83;;;12.80;87.20;;;;;;4994007;28;20556;-83
2021/06/22 03:58:53;;;;;;;19.00;4.90;;;12.90;87.20;;;;;;5011549;28;20177;-83
2021/06/22 04:01:19;;;;;;;17.50;4.50;;;12.90;87.20;;;;;;5011451;28;20174;-83
2021/06/22 04:03:45;;;;;;;15.77;4.03;;;12.90;87.20;;;;;;5011319;28;20186;-83
2021/06/22 04:06:10;;;;;;;14.03;4.47;;;12.90;87.20;;;;;;5011424;28;20184;-83
2021/06/22 04:08:37;;;;;;;16.43;4.00;;;12.90;87.30;;;;;;5011316;28;20227;-83
2021/06/22 04:11:03;;;;;;;15.30;4.33;;;13.00;87.40;;;;;;5011481;28;20204;-83
2021/06/22 04:13:29;;;;;;;19.93;4.70;;;13.00;87.30;;;;;;5011412;28;20234;-83
2021/06/22 04:15:55;;;;;;;14.93;4.70;;;13.10;87.00;;;;;;5011192;28;20265;-83
2021/06/22 04:18:21;;;;;;;20.20;4.33;;;13.10;87.00;;;;;;4993697;28;20232;-83
2021/06/22 04:20:48;;;;;;;12.53;4.27;;;13.10;86.60;;;;;;4993631;28;20266;-83
2021/06/22 04:23:13;;;;;;;10.67;4.20;;;13.20;85.80;;;;;;4993903;28;20553;-83
2021/06/22 04:25:39;;;;;;;13.97;4.07;;;13.10;85.90;;;;;;5011513;28;20254;-83
2021/06/22 04:28:05;;;;;;;11.77;4.53;;;13.10;86.10;;;;;;5011131;28;20185;-83
2021/06/22 04:30:32;;;;;;;19.67;4.37;;;13.00;86.40;;;;;;4993527;28;20258;-83
2021/06/22 04:32:58;;;;;;;17.03;4.53;;;13.20;85.80;;;;;;5010532;28;20219;-83
2021/06/22 04:35:26;;;;;;;11.67;3.97;;;13.20;85.80;;;;;;5010985;28;20197;-83
2021/06/22 04:37:52;;;;;;;15.10;4.73;;;13.10;85.90;;;;;;4993571;28;20189;-83
2021/06/22 04:40:18;;;;;;;15.30;4.57;;;13.00;86.20;;;;;;5010953;28;20185;-83
2021/06/22 04:42:43;;;;;;;14.73;4.37;;;13.00;86.20;;;;;;5011280;28;20645;-83
2021/06/22 04:45:09;;;;;;;14.87;4.60;;;13.00;86.00;;;;;;5010816;28;20225;-83
2021/06/22 04:47:36;;;;;;;18.00;4.53;;;13.00;86.30;;;;;;4993369;28;20649;-83
2021/06/22 04:50:03;;;;;;;19.87;5.33;;;13.00;86.50;;;;;;5010816;28;20707;-82
2021/06/22 04:52:28;;;;;;;17.57;4.80;;;13.00;86.50;;;;;;4993184;28;20204;-83
2021/06/22 04:54:54;;;;;;;17.17;4.97;;;13.00;86.70;;;;;;5010690;28;20193;-84
2021/06/22 04:57:20;;;;;;;13.97;5.00;;;13.00;86.70;;;;;;4993212;28;20180;-83
2021/06/22 04:59:46;;;;;;;17.57;3.77;;;13.10;86.80;;;;;;4993105;28;20238;-83
2021/06/22 05:02:12;;;;;;;18.07;5.10;;;13.20;86.80;;;;;;5010776;28;20174;-83
2021/06/22 05:04:38;;;;;;;22.33;4.93;;;13.20;86.90;;;;;;4992974;28;20221;-82
2021/06/22 05:07:04;;;;;;;10.77;4.00;;;13.30;86.90;;;;;;4993037;28;20228;-83
2021/06/22 05:09:29;;;;;;;15.23;4.00;;;13.30;86.90;;;;;;5010783;28;20261;-83
2021/06/22 05:11:55;;;;;;;16.47;4.43;;;13.40;86.70;;;;;;4992972;28;20271;-83
2021/06/22 05:14:21;;;;;;;14.60;4.63;;;13.50;86.70;;;;;;5010620;28;20571;-83
2021/06/22 05:16:49;;;;;;;17.27;5.10;;;13.60;86.40;;;;;;5010447;28;20667;-83
2021/06/22 05:19:16;;;;;;;16.10;4.30;;;13.70;86.40;;;;;;5010728;28;20234;-83
2021/06/22 05:21:42;;;;;;;12.73;4.30;;;13.80;86.00;;;;;;4992868;28;20188;-83
2021/06/22 05:24:08;;;;;;;12.67;4.67;;;13.90;86.20;;;;;;5010391;28;20276;-83
2021/06/22 05:26:34;;;;;;;10.10;3.87;;;14.00;86.20;;;;;;4992813;28;20185;-83
2021/06/22 05:29:00;;;;;;;19.37;4.43;;;14.10;85.80;;;;;;4992802;28;20177;-83
2021/06/22 05:31:25;;;;;;;14.53;3.93;;;14.20;85.90;;;;;;5010242;28;20201;-83
2021/06/22 05:33:51;;;;;;;16.23;4.40;;;14.30;85.00;;;;;;5010462;28;20540;-83
2021/06/22 05:36:17;;;;;;;10.47;3.83;;;14.50;84.40;;;;;;4992723;28;20173;-83
2021/06/22 05:38:42;;;;;;;13.77;4.07;;;14.60;84.40;;;;;;5010495;28;20176;-83
2021/06/22 05:41:08;;;;;;;21.63;4.67;;;14.80;83.80;;;;;;5010268;28;20260;-83
2021/06/22 05:43:34;;;;;;;14.27;3.90;;;14.80;82.60;;;;;;4994376;28;20203;-83
2021/06/22 05:46:00;;;;;;;16.33;4.33;;;14.90;82.00;;;;;;5013530;28;20735;-83
2021/06/22 05:48:26;;;;;;;17.03;4.33;;;15.00;80.90;;;;;;4996018;28;20189;-83
2021/06/22 05:50:51;;;;;;;8.43;4.07;;;15.00;81.00;;;;;;5013606;28;20258;-83
2021/06/22 05:53:17;;;;;;;13.43;3.60;;;15.20;80.10;;;;;;4995909;28;20177;-83
2021/06/22 05:55:42;;;;;;;15.70;4.23;;;15.20;78.80;;;;;;4995899;28;20680;-83
2021/06/22 05:58:08;;;;;;;16.83;4.37;;;15.10;78.70;;;;;;5013451;28;20177;-83
2021/06/22 06:00:34;;;;;;;14.30;4.17;;;15.10;80.30;;;;;;5013371;28;20174;-83
2021/06/22 06:03:00;;;;;;;9.53;3.77;;;15.20;80.10;;;;;;5013599;28;20177;-83
2021/06/22 06:05:25;;;;;;;15.27;4.13;;;15.20;79.30;;;;;;4995457;28;20688;-83
2021/06/22 06:07:52;;;;;;;10.60;3.97;;;15.20;79.60;;;;;;5013233;28;20174;-83
2021/06/22 06:10:19;;;;;;;8.47;3.47;;;15.10;79.90;;;;;;4995653;28;20208;-82
2021/06/22 06:12:46;;;;;;;10.37;3.63;;;15.20;78.60;;;;;;5013267;28;20205;-82
2021/06/22 06:15:12;;;;;;;11.53;3.77;;;15.10;79.10;;;;;;5013579;28;20216;-83
2021/06/22 06:17:39;;;;;;;19.73;3.93;;;15.10;79.50;;;;;;5013288;28;20180;-83
2021/06/22 06:20:07;;;;;;;15.40;4.57;;;15.20;80.00;;;;;;4995602;28;20552;-83
2021/06/22 06:22:33;;;;;;;14.93;3.67;;;15.20;79.90;;;;;;5013457;28;20169;-83
2021/06/22 06:25:01;;;;;;;11.13;3.73;;;15.30;78.50;;;;;;5013032;28;20201;-82
2021/06/22 06:30:06;;;;;;;16.60;4.33;;;15.50;76.80;;;;;;5014017;28;20201;-83
2021/06/22 06:32:32;;;;;;;13.07;3.73;;;15.50;78.00;;;;;;5013519;28;20177;-83
2021/06/22 06:34:57;;;;;;;8.17;3.40;;;15.60;79.10;;;;;;5012758;28;20189;-83
2021/06/22 06:37:24;;;;;;;16.27;4.00;;;15.60;78.30;;;;;;5012805;28;20201;-83
2021/06/22 06:39:49;;;;;;;15.57;4.20;;;15.60;78.70;;;;;;4995296;28;20181;-83
2021/06/22 06:42:15;;;;;;;14.30;3.77;;;15.60;79.20;;;;;;5012759;28;20178;-83
2021/06/22 06:44:40;;;;;;;15.65;3.92;;;15.60;79.10;;;;;;4995081;28;20575;-83
2021/06/22 06:47:06;;;;;;;14.93;4.00;;;15.60;78.30;;;;;;5012684;28;20173;-83
2021/06/22 06:49:35;;;;;;;12.20;4.83;;;15.40;78.10;;;;;;5012558;28;20555;-83
2021/06/22 06:52:01;;;;;;;13.17;4.23;;;15.50;78.30;;;;;;4995057;28;20177;-83
2021/06/22 06:54:26;;;;;;;9.73;3.77;;;15.50;78.50;;;;;;4994344;28;20574;-83
2021/06/22 06:56:52;;;;;;;16.90;3.93;;;15.50;77.90;;;;;;5012467;28;20178;-83
2021/06/22 06:59:18;;;;;;;11.67;4.23;;;15.60;77.90;;;;;;5012441;28;20173;-84
2021/06/22 07:01:43;;;;;;;12.77;4.13;;;15.70;78.10;;;;;;4995170;28;20204;-84
2021/06/22 07:04:09;;;;;;;9.70;3.47;;;15.70;77.80;;;;;;4994648;28;20213;-83
2021/06/22 07:06:35;;;;;;;10.53;3.87;;;15.60;76.80;;;;;;5013195;28;20162;-84
2021/06/22 07:09:00;;;;;;;12.90;4.03;;;15.40;77.70;;;;;;4994834;28;20231;-83
2021/06/22 07:11:26;;;;;;;17.07;5.03;;;15.40;78.20;;;;;;5012341;28;20213;-84
2021/06/22 07:13:51;;;;;;;17.03;4.23;;;15.40;78.60;;;;;;5012254;28;20178;-84
2021/06/22 07:16:17;;;;;;;16.97;4.73;;;15.40;79.10;;;;;;5012424;28;20178;-83
2021/06/22 07:18:43;;;;;;;19.93;5.03;;;15.50;78.70;;;;;;4994686;28;20178;-83
2021/06/22 07:21:09;;;;;;;17.23;3.93;;;15.60;78.00;;;;;;5012186;28;20185;-84
2021/06/22 07:23:35;;;;;;;11.23;3.67;;;15.70;77.90;;;;;;5012287;28;20649;-83
2021/06/22 07:26:01;;;;;;;15.60;4.73;;;15.60;77.90;;;;;;5012299;28;20204;-84
2021/06/22 07:28:26;;;;;;;14.17;4.37;;;15.70;78.90;;;;;;5012150;28;20177;-83
2021/06/22 07:30:52;;;;;;;12.63;3.60;;;15.80;77.00;;;;;;5011969;28;20571;-83
2021/06/22 07:33:18;;;;;;;10.40;3.50;;;15.90;76.40;;;;;;5011889;28;20637;-83
2021/06/22 07:35:44;;;;;;;10.30;3.37;;;15.80;76.10;;;;;;5011882;28;20201;-83
2021/06/22 07:38:10;;;;;;;10.30;3.73;;;15.80;76.30;;;;;;4994478;28;20649;-83
2021/06/22 07:40:37;;;;;;;10.25;3.45;;;15.90;76.10;;;;;;4994269;28;20209;-83
2021/06/22 07:43:03;;;;;;;12.83;3.40;;;16.00;77.40;;;;;;5012051;28;20207;-83
2021/06/22 07:45:28;;;;;;;13.15;3.95;;;16.10;76.50;;;;;;5011663;28;20193;-83
2021/06/22 07:47:55;;;;;;;13.48;3.75;;;16.20;76.70;;;;;;5011776;28;20174;-83
2021/06/22 07:50:21;;;;;;;16.80;3.50;;;16.20;75.50;;;;;;4994364;28;20235;-83
2021/06/22 07:52:47;;;;;;;9.60;3.50;;;16.30;73.90;;;;;;5011848;28;20173;-83
2021/06/22 07:55:15;;;;;;;17.58;3.83;;;16.50;73.80;;;;;;5011591;28;20693;-83
2021/06/22 07:57:42;;;;;;;12.48;4.03;;;16.70;73.70;;;;;;4994173;28;20178;-83
2021/06/22 08:00:12;;;;;;;10.68;2.97;;;16.80;74.90;;;;;;5011663;28;20180;-83
2021/06/22 08:02:38;;;;;;;13.38;3.40;;;16.80;74.10;;;;;;5011799;28;20634;-83
2021/06/22 08:05:04;;;;;;;7.10;3.50;;;16.80;73.30;;;;;;4993928;28;20220;-83
2021/06/22 08:07:30;;;;;;;14.20;4.00;;;16.70;72.70;;;;;;5010538;28;20173;-83
2021/06/22 08:09:55;;;;;;;11.63;3.65;;;16.70;72.00;;;;;;5011631;28;20220;-83
2021/06/22 08:12:21;;;;;;;12.57;3.55;;;16.70;72.80;;;;;;5011478;28;20248;-83
2021/06/22 08:14:46;;;;;;;11.00;3.90;;;16.70;72.70;;;;;;4993836;28;20301;-83
2021/06/22 08:17:12;;;;;;;12.32;4.00;;;16.70;72.40;;;;;;5011409;28;20180;-83
2021/06/22 08:19:37;;;;;;;10.05;3.80;;;16.70;73.40;;;;;;5011605;28;20631;-83
2021/06/22 08:22:03;;;;;;;6.97;3.35;;;16.90;73.50;;;;;;5011247;28;20187;-83
2021/06/22 08:24:29;;;;;;;11.65;3.75;;;16.80;72.50;;;;;;5011208;28;20185;-83
2021/06/22 08:26:54;;;;;;;12.07;3.42;;;16.80;72.70;;;;;;5011389;28;20165;-83
2021/06/22 08:29:20;;;;;;;11.30;3.75;;;17.00;73.90;;;;;;5011091;28;20344;-83
2021/06/22 08:31:46;;;;;;;9.65;3.13;;;17.20;72.80;;;;;;5011078;28;20181;-82
2021/06/22 08:34:11;;;;;;;11.07;4.15;;;17.30;71.90;;;;;;5011185;28;20216;-82
2021/06/22 08:36:37;;;;;;;10.02;3.38;;;17.50;72.10;;;;;;5011046;28;20208;-83
2021/06/22 08:39:03;;;;;;;13.52;3.83;;;17.50;73.00;;;;;;4993467;28;20280;-83
2021/06/22 08:41:30;;;;;;;8.82;3.40;;;17.50;68.70;;;;;;4993522;28;20185;-83
2021/06/22 08:43:57;;;;;;;13.52;3.60;;;17.30;69.60;;;;;;5011150;28;20169;-83
2021/06/22 08:46:22;;;;;;;10.55;3.28;;;17.20;70.90;;;;;;5011032;28;20169;-83
2021/06/22 08:48:48;;;;;;;11.70;3.75;;;17.20;70.90;;;;;;5010972;28;20169;-83
2021/06/22 08:51:14;;;;;;;11.38;3.42;;;17.00;72.20;;;;;;5010903;28;20208;-83
2021/06/22 08:53:41;;;;;;;13.45;3.95;;;17.20;72.40;;;;;;5011091;28;20229;-84
2021/06/22 08:56:07;;;;;;;12.32;4.82;;;17.30;70.10;;;;;;5010997;28;20174;-83
2021/06/22 08:58:33;;;;;;;10.98;3.95;;;17.50;71.30;;;;;;5010901;28;20174;-83
2021/06/22 09:00:58;;;;;;;18.67;5.53;;;17.60;68.90;;;;;;5010865;28;20201;-83
2021/06/22 09:03:26;;;;;;;12.23;3.63;;;17.70;68.70;;;;;;4993156;28;20216;-83
2021/06/22 09:06:03;;;;;;;9.52;3.30;;;17.80;68.40;;;;;;5010691;28;20201;-83
2021/06/22 09:08:31;;;;;;;14.27;4.03;;;17.80;67.10;;;;;;5086396;23;20323;-83
2021/06/22 09:11:11;;;;;;;13.35;3.50;;;17.70;69.10;;;;;;5012467;28;20582;-83
2021/06/22 09:13:39;;;;;;;13.43;3.88;;;17.30;70.00;;;;;;5012694;28;20181;-83
2021/06/22 09:16:09;;;;;;;10.85;3.85;;;17.30;70.30;;;;;;5012599;28;20255;-83
2021/06/22 09:18:37;;;;;;;13.52;3.47;;;17.00;71.10;;;;;;5032066;28;20287;-84
2021/06/22 09:21:11;;;;;;;12.98;3.38;;;16.90;71.20;;;;;;5033724;28;20173;-85
2021/06/22 09:23:39;;;;;;;13.30;3.50;;;16.70;71.90;;;;;;5016197;28;20202;-85
2021/06/22 09:26:16;;;;;;;19.63;4.05;;;16.70;71.50;;;;;;5033846;28;20232;-85
2021/06/22 09:28:42;;;;;;;14.10;4.00;;;16.80;72.40;;;;;;5016008;28;20227;-85
2021/06/22 09:31:11;;;;;;;16.17;3.83;;;16.80;71.90;;;;;;5033782;28;20219;-86
2021/06/22 09:33:45;;;;;;;17.40;3.97;;;16.90;71.40;;;;;;5015789;28;20648;-86
2021/06/22 09:36:21;;;;;;;13.77;3.63;;;17.10;69.80;;;;;;5033637;28;20149;-85
2021/06/22 09:38:52;;;;;;;11.57;4.00;;;17.30;69.90;;;;;;5033396;28;20701;-85
2021/06/22 09:41:28;;;;;;;14.57;3.55;;;17.70;69.00;;;;;;5015745;28;20180;-85
2021/06/22 09:44:13;;;;;;;15.02;4.70;;;18.00;70.10;;;;;;5015724;28;20173;-85
2021/06/22 09:46:44;;;;;;;14.57;3.38;;;18.40;68.50;;;;;;5033346;28;20236;-85
2021/06/22 09:49:21;;;;;;;8.65;2.92;;;18.50;67.30;;;;;;5033422;28;20192;-85
2021/06/22 09:51:54;;;;;;;8.73;2.58;;;18.80;63.20;;;;;;5033154;28;20192;-85
2021/06/22 09:54:30;;;;;;;13.43;3.97;;;18.60;63.50;;;;;;5033902;28;20177;-85
2021/06/22 09:57:28;;;;;;;13.32;3.53;;;18.60;65.70;;;;;;5033083;28;20181;-85
2021/06/22 10:00:03;;;;;;;13.65;3.25;;;18.20;64.80;;;;;;5015692;28;20300;-85
2021/06/22 10:02:29;;;;;;;11.50;2.85;;;18.20;66.30;;;;;;5015535;28;20160;-85
2021/06/22 10:04:57;;;;;;;7.38;2.90;;;18.00;66.80;;;;;;5033154;28;20165;-85
2021/06/22 10:07:24;;;;;;;12.13;3.17;;;18.20;66.90;;;;;;5033173;28;20227;-85
2021/06/22 10:09:56;;;;;;;12.27;2.83;;;17.70;65.70;;;;;;5015138;28;20652;-85
2021/06/22 10:12:24;;;;;;;7.85;2.50;;;17.50;67.10;;;;;;5015341;28;20268;-85
2021/06/22 10:14:52;;;;;;;12.25;3.25;;;17.60;67.50;;;;;;5032806;28;20213;-85
2021/06/22 10:17:23;;;;;;;10.65;3.15;;;17.70;66.90;;;;;;5014937;28;20909;-85
2021/06/22 10:19:51;;;;;;;9.50;2.85;;;17.60;66.10;;;;;;5015178;28;20267;-86
2021/06/22 10:22:21;;;;;;;17.85;5.30;;;17.80;66.40;;;;;;5015091;28;20189;-85
2021/06/22 10:24:47;;;;;;;16.02;4.85;;;18.00;64.20;;;;;;5014996;28;20656;-85
2021/06/22 10:27:18;;;;;;;17.00;5.78;;;17.90;64.60;;;;;;5014936;28;20180;-86
2021/06/22 10:29:45;;;;;;;10.13;2.78;;;18.10;65.50;;;;;;5013936;28;20169;-85
2021/06/22 10:32:12;;;;;;;15.95;4.20;;;18.40;63.90;;;;;;5015039;28;20549;-86
2021/06/22 10:34:38;;;;;;;10.68;2.80;;;18.70;64.10;;;;;;5014843;28;20257;-86
2021/06/22 10:37:12;;;;;;;9.82;2.80;;;19.00;64.00;;;;;;5032777;28;20260;-86
2021/06/22 10:40:06;;;;;;;8.93;2.63;;;19.00;63.50;;;;;;5015691;28;20162;-86
2021/06/22 10:42:43;;;;;;;19.48;4.65;;;18.90;62.00;;;;;;5014773;28;20195;-86
2021/06/22 10:45:10;;;;;;;10.18;2.40;;;18.70;63.90;;;;;;5014740;28;20638;-86
2021/06/22 10:47:37;;;;;;;11.70;2.80;;;18.80;62.30;;;;;;5032465;28;20275;-86
2021/06/22 10:50:28;;;;;;;10.23;3.45;;;19.00;60.90;;;;;;5014538;28;20273;-86
2021/06/22 10:52:54;;;;;;;12.02;2.63;;;18.80;62.10;;;;;;5032436;28;20708;-86
2021/06/22 10:55:49;;;;;;;13.13;3.03;;;18.70;62.80;;;;;;5014576;28;20268;-86
2021/06/22 10:58:17;;;;;;;10.30;2.85;;;18.90;61.70;;;;;;5014351;28;20597;-86
2021/06/22 11:00:51;;;;;;;7.65;3.03;;;18.70;62.30;;;;;;5014498;28;20274;-86
2021/06/22 11:03:22;;;;;;;7.97;2.50;;;18.50;61.80;;;;;;5014473;28;20172;-86
2021/06/22 11:05:59;;;;;;;9.95;2.00;;;18.40;62.00;;;;;;5014506;28;20196;-86
2021/06/22 11:08:24;;;;;;;13.20;2.75;;;18.30;62.20;;;;;;5014193;28;20212;-85
2021/06/22 11:10:56;;;;;;;10.35;2.53;;;18.20;62.70;;;;;;5014283;28;20209;-86
2021/06/22 11:13:31;;;;;;;10.55;2.97;;;18.20;63.80;;;;;;5014217;28;20313;-86
2021/06/22 11:15:57;;;;;;;9.77;2.72;;;18.30;64.70;;;;;;5032031;28;20197;-86
2021/06/22 11:18:23;;;;;;;8.23;2.45;;;18.20;63.10;;;;;;5014205;28;20275;-86
2021/06/22 11:20:54;;;;;;;11.20;2.45;;;18.40;63.90;;;;;;5014327;28;20659;-85
2021/06/22 11:23:23;;;;;;;11.27;2.83;;;18.50;64.10;;;;;;5032108;28;20177;-86
2021/06/22 11:25:51;;;;;;;8.55;2.60;;;19.00;62.60;;;;;;5031806;28;20154;-86
2021/06/22 11:28:19;;;;;;;9.15;2.75;;;19.10;61.20;;;;;;5014046;28;20200;-86
2021/06/22 11:31:00;;;;;;;17.02;4.22;;;19.10;60.20;;;;;;5031676;28;20564;-86
2021/06/22 11:33:44;;;;;;;19.05;2.60;;;18.90;60.70;;;;;;5032131;28;20539;-86
2021/06/22 11:36:21;;;;;;;6.68;2.50;;;19.00;61.80;;;;;;5014186;28;20294;-86
2021/06/22 11:39:24;;;;;;;12.40;3.10;;;19.30;56.10;;;;;;5013784;28;20247;-86
2021/06/22 11:45:18;;;;;;;10.68;2.55;;;19.50;59.60;;;;;;5031562;28;20169;-86
2021/06/22 11:47:46;;;;;;;11.98;2.92;;;19.60;58.90;;;;;;5031733;28;20249;-86
2021/06/22 11:50:12;;;;;;;8.30;2.13;;;19.70;58.40;;;;;;5031388;28;20265;-86
2021/06/22 11:52:39;;;;;;;13.57;3.15;;;19.90;56.80;;;;;;5013736;28;20676;-87
2021/06/22 11:55:14;;;;;;;7.63;2.30;;;20.10;57.10;;;;;;5013706;28;20218;-87
2021/06/22 11:57:41;;;;;;;7.65;2.55;;;20.20;56.30;;;;;;5013652;28;20565;-86
2021/06/22 12:00:33;;;;;;;8.77;2.40;;;20.10;55.90;;;;;;5013633;28;20181;-86
2021/06/22 12:03:01;;;;;;;9.25;2.70;;;19.80;55.90;;;;;;5020574;28;20664;-86
2021/06/22 12:05:31;;;;;;;8.68;2.80;;;19.50;54.90;;;;;;5013446;28;20181;-86
2021/06/22 12:08:03;;;;;;;8.07;2.33;;;19.70;58.20;;;;;;5031157;28;20670;-86
2021/06/22 12:10:51;;;;;;;9.55;2.42;;;20.00;59.20;;;;;;5013433;28;20207;-86
2021/06/22 12:13:34;;;;;;;9.02;1.95;;;19.90;57.60;;;;;;5031079;28;20157;-86
2021/06/22 12:16:23;;;;;;;9.57;2.53;;;19.50;57.90;;;;;;5031029;28;20176;-86
2021/06/22 12:18:49;;;;;;;8.18;2.47;;;19.70;56.20;;;;;;5013415;28;20220;-85
2021/06/22 12:21:15;;;;;;;7.95;2.65;;;19.80;58.00;;;;;;5031288;28;20223;-86
2021/06/22 12:23:42;;;;;;;7.70;1.98;;;20.20;56.10;;;;;;5013386;28;20180;-85
2021/06/22 12:26:08;;;;;;;5.25;2.05;;;20.20;56.80;;;;;;5030877;28;20542;-86
2021/06/22 12:28:34;;;;;;;7.30;2.50;;;20.40;56.00;;;;;;5013282;28;20200;-86
2021/06/22 12:31:02;;;;;;;9.35;2.38;;;20.40;54.50;;;;;;5013079;28;20273;-87
2021/06/22 12:33:35;;;;;;;9.05;2.15;;;20.30;53.80;;;;;;5013265;28;20177;-86
2021/06/22 12:36:04;;;;;;;11.20;2.60;;;20.30;56.60;;;;;;5013156;28;20680;-86
2021/06/22 12:38:31;;;;;;;9.30;2.08;;;20.00;55.90;;;;;;5012968;28;20252;-86
2021/06/22 12:40:59;;;;;;;10.00;2.95;;;20.00;53.20;;;;;;5030773;28;20217;-86
2021/06/22 12:43:49;;;;;;;10.15;1.77;;;20.20;57.40;;;;;;5013071;28;20655;-86
2021/06/22 12:46:17;;;;;;;15.40;2.47;;;19.90;56.40;;;;;;5013028;28;20659;-85
2021/06/22 12:48:43;;;;;;;7.32;1.73;;;19.60;56.40;;;;;;5031022;28;20271;-85